sensor_id;sensor_type;location;lat;lon;timestamp;pressure;altitude;pressure_sealevel;temperature;humidity
46718;BME280;32448;44.960;-0.698;2024-02-15T00:00:00;101452.19;;;10.42;100.00
46718;BME280;32448;44.960;-0.698;2024-02-15T00:02:29;101442.53;;;10.39;100.00
46718;BME280;32448;44.960;-0.698;2024-02-15T00:04:56;101444.31;;;10.40;100.00
46718;BME280;32448;44.960;-0.698;2024-02-15T00:07:23;101454.00;;;10.44;100.00
46718;BME280;32448;44.960;-0.698;2024-02-15T00:09:50;101445.19;;;10.41;100.00
46718;BME280;32448;44.960;-0.698;2024-02-15T00:12:18;101444.34;;;10.42;100.00
46718;BME280;32448;44.960;-0.698;2024-02-15T00:14:45;101424.28;;;10.41;100.00
46718;BME280;32448;44.960;-0.698;2024-02-15T00:17:12;101428.03;;;10.49;100.00
46718;BME280;32448;44.960;-0.698;2024-02-15T00:19:39;101430.53;;;10.46;100.00
46718;BME280;32448;44.960;-0.698;2024-02-15T00:22:09;101425.28;;;10.44;100.00
46718;BME280;32448;44.960;-0.698;2024-02-15T00:24:37;101422.50;;;10.40;100.00
46718;BME280;32448;44.960;-0.698;2024-02-15T00:27:05;101433.91;;;10.42;100.00
46718;BME280;32448;44.960;-0.698;2024-02-15T00:29:32;101425.13;;;10.38;100.00
46718;BME280;32448;44.960;-0.698;2024-02-15T00:32:01;101419.88;;;10.38;100.00
46718;BME280;32448;44.960;-0.698;2024-02-15T00:34:31;101426.09;;;10.43;100.00
46718;BME280;32448;44.960;-0.698;2024-02-15T00:36:58;101387.19;;;10.23;100.00
46718;BME280;32448;44.960;-0.698;2024-02-15T00:39:25;101412.09;;;10.41;100.00
46718;BME280;32448;44.960;-0.698;2024-02-15T00:41:52;101417.44;;;10.44;100.00
46718;BME280;32448;44.960;-0.698;2024-02-15T00:44:18;101416.63;;;10.47;100.00
46718;BME280;32448;44.960;-0.698;2024-02-15T00:46:45;101406.25;;;10.50;100.00
46718;BME280;32448;44.960;-0.698;2024-02-15T00:49:14;101404.56;;;10.52;100.00
46718;BME280;32448;44.960;-0.698;2024-02-15T00:51:41;101372.81;;;10.37;100.00
46718;BME280;32448;44.960;-0.698;2024-02-15T00:54:08;101403.72;;;10.53;100.00
46718;BME280;32448;44.960;-0.698;2024-02-15T00:56:35;101386.34;;;10.55;100.00
46718;BME280;32448;44.960;-0.698;2024-02-15T00:59:02;101388.97;;;10.55;100.00
46718;BME280;32448;44.960;-0.698;2024-02-15T01:01:32;101388.91;;;10.53;100.00
46718;BME280;32448;44.960;-0.698;2024-02-15T01:03:59;101383.59;;;10.50;100.00
46718;BME280;32448;44.960;-0.698;2024-02-15T01:06:26;101384.63;;;10.55;100.00
46718;BME280;32448;44.960;-0.698;2024-02-15T01:08:53;101385.47;;;10.54;100.00
46718;BME280;32448;44.960;-0.698;2024-02-15T01:11:20;101380.19;;;10.53;100.00
46718;BME280;32448;44.960;-0.698;2024-02-15T01:13:49;101386.25;;;10.52;100.00
46718;BME280;32448;44.960;-0.698;2024-02-15T01:16:16;101364.13;;;10.38;100.00
46718;BME280;32448;44.960;-0.698;2024-02-15T01:18:43;101386.22;;;10.50;100.00
46718;BME280;32448;44.960;-0.698;2024-02-15T01:21:10;101375.72;;;10.47;100.00
46718;BME280;32448;44.960;-0.698;2024-02-15T01:23:38;101381.13;;;10.55;100.00
46718;BME280;32448;44.960;-0.698;2024-02-15T01:26:05;101369.03;;;10.58;100.00
46718;BME280;32448;44.960;-0.698;2024-02-15T01:28:32;101373.44;;;10.61;100.00
46718;BME280;32448;44.960;-0.698;2024-02-15T01:30:59;101369.75;;;10.53;100.00
46718;BME280;32448;44.960;-0.698;2024-02-15T01:33:26;101375.22;;;10.62;100.00
46718;BME280;32448;44.960;-0.698;2024-02-15T01:35:54;101370.81;;;10.60;100.00
46718;BME280;32448;44.960;-0.698;2024-02-15T01:38:21;101363.88;;;10.62;100.00
46718;BME280;32448;44.960;-0.698;2024-02-15T01:40:48;101354.59;;;10.74;100.00
46718;BME280;32448;44.960;-0.698;2024-02-15T01:43:15;101348.50;;;10.74;100.00
46718;BME280;32448;44.960;-0.698;2024-02-15T01:45:42;101360.78;;;10.76;100.00
46718;BME280;32448;44.960;-0.698;2024-02-15T01:48:10;101353.06;;;10.81;100.00
46718;BME280;32448;44.960;-0.698;2024-02-15T01:50:38;101357.59;;;10.88;100.00
46718;BME280;32448;44.960;-0.698;2024-02-15T01:53:07;101347.03;;;10.85;100.00
46718;BME280;32448;44.960;-0.698;2024-02-15T01:55:35;101341.94;;;10.89;100.00
46718;BME280;32448;44.960;-0.698;2024-02-15T01:58:03;101342.03;;;10.94;100.00
46718;BME280;32448;44.960;-0.698;2024-02-15T02:00:30;101338.47;;;10.90;100.00
46718;BME280;32448;44.960;-0.698;2024-02-15T02:02:58;101332.72;;;11.05;100.00
46718;BME280;32448;44.960;-0.698;2024-02-15T02:05:30;101325.81;;;11.09;100.00
46718;BME280;32448;44.960;-0.698;2024-02-15T02:07:58;101332.69;;;11.04;100.00
46718;BME280;32448;44.960;-0.698;2024-02-15T02:10:28;101324.78;;;11.01;100.00
46718;BME280;32448;44.960;-0.698;2024-02-15T02:13:00;101326.59;;;11.05;100.00
46718;BME280;32448;44.960;-0.698;2024-02-15T02:15:31;101324.91;;;11.07;100.00
46718;BME280;32448;44.960;-0.698;2024-02-15T02:17:59;101331.06;;;11.09;100.00
46718;BME280;32448;44.960;-0.698;2024-02-15T02:20:27;101300.94;;;10.88;100.00
46718;BME280;32448;44.960;-0.698;2024-02-15T02:23:20;101331.03;;;11.07;100.00
46718;BME280;32448;44.960;-0.698;2024-02-15T02:25:46;101289.59;;;10.88;100.00
46718;BME280;32448;44.960;-0.698;2024-02-15T02:28:16;101315.44;;;11.12;100.00
46718;BME280;32448;44.960;-0.698;2024-02-15T02:30:43;101319.78;;;11.11;100.00
46718;BME280;32448;44.960;-0.698;2024-02-15T02:33:12;101296.66;;;10.92;100.00
46718;BME280;32448;44.960;-0.698;2024-02-15T02:35:48;101318.13;;;11.15;100.00
46718;BME280;32448;44.960;-0.698;2024-02-15T02:38:15;101315.47;;;11.13;100.00
46718;BME280;32448;44.960;-0.698;2024-02-15T02:40:42;101305.66;;;11.03;100.00
46718;BME280;32448;44.960;-0.698;2024-02-15T02:43:09;101298.63;;;11.01;100.00
46718;BME280;32448;44.960;-0.698;2024-02-15T02:45:37;101254.41;;;10.75;100.00
46718;BME280;32448;44.960;-0.698;2024-02-15T02:48:04;101297.69;;;10.99;100.00
46718;BME280;32448;44.960;-0.698;2024-02-15T02:50:32;101284.44;;;10.91;100.00
46718;BME280;32448;44.960;-0.698;2024-02-15T02:52:59;101278.41;;;10.95;100.00
46718;BME280;32448;44.960;-0.698;2024-02-15T02:55:26;101269.56;;;10.88;100.00
46718;BME280;32448;44.960;-0.698;2024-02-15T02:57:54;101256.41;;;10.85;100.00
46718;BME280;32448;44.960;-0.698;2024-02-15T03:00:22;101263.31;;;10.82;100.00
46718;BME280;32448;44.960;-0.698;2024-02-15T03:02:49;101266.75;;;10.81;100.00
46718;BME280;32448;44.960;-0.698;2024-02-15T03:05:17;101260.56;;;10.77;100.00
46718;BME280;32448;44.960;-0.698;2024-02-15T03:07:48;101253.66;;;10.79;100.00
46718;BME280;32448;44.960;-0.698;2024-02-15T03:10:15;101248.56;;;10.85;100.00
46718;BME280;32448;44.960;-0.698;2024-02-15T03:12:42;101247.69;;;10.86;100.00
46718;BME280;32448;44.960;-0.698;2024-02-15T03:15:15;101250.44;;;10.91;100.00
46718;BME280;32448;44.960;-0.698;2024-02-15T03:17:46;101232.13;;;10.91;100.00
46718;BME280;32448;44.960;-0.698;2024-02-15T03:20:13;101231.25;;;10.90;100.00
46718;BME280;32448;44.960;-0.698;2024-02-15T03:22:56;101219.13;;;10.95;100.00
46718;BME280;32448;44.960;-0.698;2024-02-15T03:25:24;101213.75;;;10.88;100.00
46718;BME280;32448;44.960;-0.698;2024-02-15T03:27:52;101228.59;;;10.89;100.00
46718;BME280;32448;44.960;-0.698;2024-02-15T03:30:23;101210.03;;;10.78;100.00
46718;BME280;32448;44.960;-0.698;2024-02-15T03:32:53;101224.09;;;10.83;100.00
46718;BME280;32448;44.960;-0.698;2024-02-15T03:35:22;101210.00;;;10.77;100.00
46718;BME280;32448;44.960;-0.698;2024-02-15T03:37:50;101200.31;;;10.71;100.00
46718;BME280;32448;44.960;-0.698;2024-02-15T03:40:21;101222.19;;;10.76;100.00
46718;BME280;32448;44.960;-0.698;2024-02-15T03:42:48;101217.03;;;10.79;100.00
46718;BME280;32448;44.960;-0.698;2024-02-15T03:45:17;101210.09;;;10.80;100.00
46718;BME280;32448;44.960;-0.698;2024-02-15T03:47:44;101205.75;;;10.80;100.00
46718;BME280;32448;44.960;-0.698;2024-02-15T03:50:13;101207.38;;;10.77;100.00
46718;BME280;32448;44.960;-0.698;2024-02-15T03:52:41;101209.91;;;10.74;100.00
46718;BME280;32448;44.960;-0.698;2024-02-15T03:55:08;101188.72;;;10.62;100.00
46718;BME280;32448;44.960;-0.698;2024-02-15T03:57:38;101185.97;;;10.55;100.00
46718;BME280;32448;44.960;-0.698;2024-02-15T04:00:08;101221.28;;;10.74;100.00
46718;BME280;32448;44.960;-0.698;2024-02-15T04:02:37;101217.84;;;10.77;100.00
46718;BME280;32448;44.960;-0.698;2024-02-15T04:05:08;101202.63;;;10.59;100.00
46718;BME280;32448;44.960;-0.698;2024-02-15T04:07:36;101207.13;;;10.66;100.00
46718;BME280;32448;44.960;-0.698;2024-02-15T04:10:04;101200.91;;;10.61;100.00
46718;BME280;32448;44.960;-0.698;2024-02-15T04:12:33;101204.41;;;10.62;100.00
46718;BME280;32448;44.960;-0.698;2024-02-15T04:15:00;101215.78;;;10.64;100.00
46718;BME280;32448;44.960;-0.698;2024-02-15T04:17:32;101213.16;;;10.64;100.00
46718;BME280;32448;44.960;-0.698;2024-02-15T04:20:03;101180.59;;;10.48;100.00
46718;BME280;32448;44.960;-0.698;2024-02-15T04:22:33;101200.81;;;10.56;100.00
46718;BME280;32448;44.960;-0.698;2024-02-15T04:25:09;101201.75;;;10.58;100.00
46718;BME280;32448;44.960;-0.698;2024-02-15T04:27:37;101210.25;;;10.51;100.00
46718;BME280;32448;44.960;-0.698;2024-02-15T04:30:06;101205.19;;;10.57;100.00
46718;BME280;32448;44.960;-0.698;2024-02-15T04:32:35;101198.06;;;10.52;100.00
46718;BME280;32448;44.960;-0.698;2024-02-15T04:35:04;101206.09;;;10.58;100.00
46718;BME280;32448;44.960;-0.698;2024-02-15T04:37:35;101168.94;;;10.35;100.00
46718;BME280;32448;44.960;-0.698;2024-02-15T04:40:04;101196.47;;;10.57;100.00
46718;BME280;32448;44.960;-0.698;2024-02-15T04:42:38;101194.66;;;10.54;100.00
46718;BME280;32448;44.960;-0.698;2024-02-15T04:45:08;101175.34;;;10.48;100.00
46718;BME280;32448;44.960;-0.698;2024-02-15T04:47:37;101186.75;;;10.51;100.00
46718;BME280;32448;44.960;-0.698;2024-02-15T04:50:04;101173.63;;;10.50;100.00
46718;BME280;32448;44.960;-0.698;2024-02-15T04:52:33;101171.94;;;10.52;100.00
46718;BME280;32448;44.960;-0.698;2024-02-15T04:55:01;101173.53;;;10.45;100.00
46718;BME280;32448;44.960;-0.698;2024-02-15T04:57:31;101161.94;;;10.34;100.00
46718;BME280;32448;44.960;-0.698;2024-02-15T04:59:59;101178.34;;;10.29;100.00
46718;BME280;32448;44.960;-0.698;2024-02-15T05:02:26;101175.59;;;10.23;100.00
46718;BME280;32448;44.960;-0.698;2024-02-15T05:04:53;101171.94;;;10.17;100.00
46718;BME280;32448;44.960;-0.698;2024-02-15T05:07:23;101171.06;;;10.17;100.00
46718;BME280;32448;44.960;-0.698;2024-02-15T05:09:50;101164.81;;;10.10;100.00
46718;BME280;32448;44.960;-0.698;2024-02-15T05:12:25;101156.84;;;10.04;100.00
46718;BME280;32448;44.960;-0.698;2024-02-15T05:14:52;101170.81;;;10.08;100.00
46718;BME280;32448;44.960;-0.698;2024-02-15T05:17:20;101164.44;;;9.97;100.00
46718;BME280;32448;44.960;-0.698;2024-02-15T05:19:49;101162.84;;;10.02;100.00
46718;BME280;32448;44.960;-0.698;2024-02-15T05:22:16;101158.47;;;10.01;100.00
46718;BME280;32448;44.960;-0.698;2024-02-15T05:24:46;101148.13;;;10.04;100.00
46718;BME280;32448;44.960;-0.698;2024-02-15T05:27:13;101133.06;;;9.95;100.00
46718;BME280;32448;44.960;-0.698;2024-02-15T05:29:40;101133.84;;;9.91;100.00
46718;BME280;32448;44.960;-0.698;2024-02-15T05:32:10;101136.38;;;9.88;100.00
46718;BME280;32448;44.960;-0.698;2024-02-15T05:34:37;101137.22;;;9.87;100.00
46718;BME280;32448;44.960;-0.698;2024-02-15T05:37:07;101134.81;;;9.95;100.00
46718;BME280;32448;44.960;-0.698;2024-02-15T05:39:34;101130.44;;;9.94;100.00
46718;BME280;32448;44.960;-0.698;2024-02-15T05:42:01;101127.84;;;9.94;100.00
46718;BME280;32448;44.960;-0.698;2024-02-15T05:44:28;101138.34;;;9.97;100.00
46718;BME280;32448;44.960;-0.698;2024-02-15T05:46:55;101109.47;;;9.91;100.00
46718;BME280;32448;44.960;-0.698;2024-02-15T05:49:23;101141.16;;;10.06;100.00
46718;BME280;32448;44.960;-0.698;2024-02-15T05:51:50;101136.00;;;10.07;100.00
46718;BME280;32448;44.960;-0.698;2024-02-15T05:54:20;101141.16;;;10.06;100.00
46718;BME280;32448;44.960;-0.698;2024-02-15T05:56:49;101144.66;;;10.05;100.00
46718;BME280;32448;44.960;-0.698;2024-02-15T05:59:19;101140.19;;;10.01;100.00
46718;BME280;32448;44.960;-0.698;2024-02-15T06:01:48;101085.63;;;9.77;100.00
46718;BME280;32448;44.960;-0.698;2024-02-15T06:04:19;101129.63;;;9.96;100.00
46718;BME280;32448;44.960;-0.698;2024-02-15T06:06:46;101089.03;;;9.74;100.00
46718;BME280;32448;44.960;-0.698;2024-02-15T06:09:48;101142.81;;;10.01;100.00
46718;BME280;32448;44.960;-0.698;2024-02-15T06:12:15;101119.00;;;9.89;100.00
46718;BME280;32448;44.960;-0.698;2024-02-15T06:15:12;101118.19;;;9.91;100.00
46718;BME280;32448;44.960;-0.698;2024-02-15T06:17:46;101102.19;;;9.77;100.00
46718;BME280;32448;44.960;-0.698;2024-02-15T06:20:29;101140.03;;;9.95;100.00
46718;BME280;32448;44.960;-0.698;2024-02-15T06:22:59;101133.84;;;9.91;100.00
46718;BME280;32448;44.960;-0.698;2024-02-15T06:25:55;101136.34;;;9.86;100.00
46718;BME280;32448;44.960;-0.698;2024-02-15T06:28:26;101104.44;;;9.64;100.00
46718;BME280;32448;44.960;-0.698;2024-02-15T06:31:13;101140.50;;;9.78;100.00
46718;BME280;32448;44.960;-0.698;2024-02-15T06:34:04;101130.69;;;9.70;100.00
46718;BME280;32448;44.960;-0.698;2024-02-15T06:37:10;101116.59;;;9.63;100.00
46718;BME280;32448;44.960;-0.698;2024-02-15T06:40:00;101112.03;;;9.55;100.00
46718;BME280;32448;44.960;-0.698;2024-02-15T06:42:35;101144.88;;;9.79;100.00
46718;BME280;32448;44.960;-0.698;2024-02-15T06:45:05;101097.28;;;9.57;100.00
46718;BME280;32448;44.960;-0.698;2024-02-15T06:47:41;101134.44;;;9.79;100.00
46718;BME280;32448;44.960;-0.698;2024-02-15T06:50:11;101118.53;;;9.70;100.00
46718;BME280;32448;44.960;-0.698;2024-02-15T06:52:39;101125.47;;;9.70;100.00
46718;BME280;32448;44.960;-0.698;2024-02-15T06:55:08;101107.72;;;9.57;100.00
46718;BME280;32448;44.960;-0.698;2024-02-15T06:57:39;101123.66;;;9.67;100.00
46718;BME280;32448;44.960;-0.698;2024-02-15T07:00:12;101147.28;;;9.72;100.00
46718;BME280;32448;44.960;-0.698;2024-02-15T07:02:49;101125.16;;;9.58;100.00
46718;BME280;32448;44.960;-0.698;2024-02-15T07:05:29;101134.81;;;9.62;100.00
46718;BME280;32448;44.960;-0.698;2024-02-15T07:08:08;101123.47;;;9.60;100.00
46718;BME280;32448;44.960;-0.698;2024-02-15T07:10:42;101124.19;;;9.54;100.00
46718;BME280;32448;44.960;-0.698;2024-02-15T07:13:31;101064.13;;;9.20;100.00
46718;BME280;32448;44.960;-0.698;2024-02-15T07:16:16;101092.25;;;9.31;100.00
46718;BME280;32448;44.960;-0.698;2024-02-15T07:18:46;101088.59;;;9.25;100.00
46718;BME280;32448;44.960;-0.698;2024-02-15T07:21:15;101115.03;;;9.37;100.00
46718;BME280;32448;44.960;-0.698;2024-02-15T07:23:48;101096.28;;;9.20;100.00
46718;BME280;32448;44.960;-0.698;2024-02-15T07:26:25;101106.97;;;9.28;100.00
46718;BME280;32448;44.960;-0.698;2024-02-15T07:28:54;101131.53;;;9.36;100.00
46718;BME280;32448;44.960;-0.698;2024-02-15T07:31:31;101111.31;;;9.29;100.00
46718;BME280;32448;44.960;-0.698;2024-02-15T07:34:09;101099.13;;;9.28;100.00
46718;BME280;32448;44.960;-0.698;2024-02-15T07:36:46;101139.63;;;9.46;100.00
46718;BME280;32448;44.960;-0.698;2024-02-15T07:39:20;101095.66;;;9.27;100.00
46718;BME280;32448;44.960;-0.698;2024-02-15T07:41:54;101142.41;;;9.53;100.00
46718;BME280;32448;44.960;-0.698;2024-02-15T07:44:23;101114.34;;;9.44;100.00
46718;BME280;32448;44.960;-0.698;2024-02-15T07:47:10;101092.09;;;9.25;100.00
46718;BME280;32448;44.960;-0.698;2024-02-15T07:49:39;101107.25;;;9.38;100.00
46718;BME280;32448;44.960;-0.698;2024-02-15T07:52:06;101122.09;;;9.41;100.00
46718;BME280;32448;44.960;-0.698;2024-02-15T07:54:39;101108.25;;;9.43;100.00
46718;BME280;32448;44.960;-0.698;2024-02-15T07:57:15;101111.03;;;9.49;100.00
46718;BME280;32448;44.960;-0.698;2024-02-15T07:59:50;101115.38;;;9.50;100.00
46718;BME280;32448;44.960;-0.698;2024-02-15T08:02:21;101113.75;;;9.54;100.00
46718;BME280;32448;44.960;-0.698;2024-02-15T08:04:50;101145.72;;;9.78;100.00
46718;BME280;32448;44.960;-0.698;2024-02-15T08:07:19;101113.97;;;9.63;100.00
46718;BME280;32448;44.960;-0.698;2024-02-15T08:10:16;101070.78;;;9.41;100.00
46718;BME280;32448;44.960;-0.698;2024-02-15T08:12:48;101139.88;;;9.89;100.00
46718;BME280;32448;44.960;-0.698;2024-02-15T08:15:44;101148.00;;;9.99;100.00
46718;BME280;32448;44.960;-0.698;2024-02-15T08:18:19;101120.59;;;9.82;100.00
46718;BME280;32448;44.960;-0.698;2024-02-15T08:20:50;101161.34;;;10.11;100.00
46718;BME280;32448;44.960;-0.698;2024-02-15T08:23:21;101126.00;;;9.90;100.00
46718;BME280;32448;44.960;-0.698;2024-02-15T08:25:47;101173.00;;;10.23;100.00
46718;BME280;32448;44.960;-0.698;2024-02-15T08:28:17;101136.97;;;10.11;100.00
46718;BME280;32448;44.960;-0.698;2024-02-15T08:30:53;101159.25;;;10.31;100.00
46718;BME280;32448;44.960;-0.698;2024-02-15T08:33:32;101124.25;;;10.23;100.00
46718;BME280;32448;44.960;-0.698;2024-02-15T08:36:02;101111.09;;;10.20;100.00
46718;BME280;32448;44.960;-0.698;2024-02-15T08:38:37;101100.72;;;10.23;100.00
46718;BME280;32448;44.960;-0.698;2024-02-15T08:41:09;101121.88;;;10.34;100.00
46718;BME280;32448;44.960;-0.698;2024-02-15T08:44:02;101128.97;;;10.39;100.00
46718;BME280;32448;44.960;-0.698;2024-02-15T08:46:47;101123.13;;;10.51;100.00
46718;BME280;32448;44.960;-0.698;2024-02-15T08:49:18;101122.38;;;10.55;100.00
46718;BME280;32448;44.960;-0.698;2024-02-15T08:51:50;101143.47;;;10.64;100.00
46718;BME280;32448;44.960;-0.698;2024-02-15T08:54:31;101123.59;;;10.71;100.00
46718;BME280;32448;44.960;-0.698;2024-02-15T08:57:07;101128.06;;;10.76;100.00
46718;BME280;32448;44.960;-0.698;2024-02-15T08:59:48;101110.59;;;10.75;100.00
46718;BME280;32448;44.960;-0.698;2024-02-15T09:02:16;101122.94;;;10.81;100.00
46718;BME280;32448;44.960;-0.698;2024-02-15T09:04:56;101117.94;;;10.91;100.00
46718;BME280;32448;44.960;-0.698;2024-02-15T09:07:44;101097.03;;;10.91;100.00
46718;BME280;32448;44.960;-0.698;2024-02-15T09:10:19;101109.75;;;11.18;100.00
46718;BME280;32448;44.960;-0.698;2024-02-15T09:12:53;101100.97;;;11.13;100.00
46718;BME280;32448;44.960;-0.698;2024-02-15T09:15:22;101094.03;;;11.15;100.00
46718;BME280;32448;44.960;-0.698;2024-02-15T09:17:59;101101.44;;;11.38;100.00
46718;BME280;32448;44.960;-0.698;2024-02-15T09:20:34;101086.38;;;11.26;100.00
46718;BME280;32448;44.960;-0.698;2024-02-15T09:23:29;101083.16;;;11.41;100.00
46718;BME280;32448;44.960;-0.698;2024-02-15T09:25:59;101082.47;;;11.51;100.00
46718;BME280;32448;44.960;-0.698;2024-02-15T09:28:28;101072.03;;;11.52;100.00
46718;BME280;32448;44.960;-0.698;2024-02-15T09:31:01;101083.56;;;11.63;100.00
46718;BME280;32448;44.960;-0.698;2024-02-15T09:33:56;101088.16;;;11.75;100.00
46718;BME280;32448;44.960;-0.698;2024-02-15T09:36:45;101070.78;;;11.79;100.00
46718;BME280;32448;44.960;-0.698;2024-02-15T09:39:15;101047.25;;;11.83;100.00
46718;BME280;32448;44.960;-0.698;2024-02-15T09:42:11;101092.41;;;12.21;100.00
46718;BME280;32448;44.960;-0.698;2024-02-15T09:44:39;101015.13;;;11.92;100.00
46718;BME280;32448;44.960;-0.698;2024-02-15T09:47:12;101063.69;;;12.26;100.00
46718;BME280;32448;44.960;-0.698;2024-02-15T09:50:09;101076.06;;;12.39;100.00
46718;BME280;32448;44.960;-0.698;2024-02-15T09:52:52;101039.06;;;12.18;100.00
46718;BME280;32448;44.960;-0.698;2024-02-15T09:55:25;101028.50;;;12.12;100.00
46718;BME280;32448;44.960;-0.698;2024-02-15T09:57:55;101055.78;;;12.24;100.00
46718;BME280;32448;44.960;-0.698;2024-02-15T10:00:29;101061.97;;;12.29;100.00
46718;BME280;32448;44.960;-0.698;2024-02-15T10:02:59;101026.75;;;12.11;100.00
46718;BME280;32448;44.960;-0.698;2024-02-15T10:05:33;101013.69;;;12.15;100.00
46718;BME280;32448;44.960;-0.698;2024-02-15T10:08:15;100959.44;;;12.07;100.00
46718;BME280;32448;44.960;-0.698;2024-02-15T10:10:45;101007.75;;;12.27;100.00
46718;BME280;32448;44.960;-0.698;2024-02-15T10:13:23;100985.59;;;12.02;100.00
46718;BME280;32448;44.960;-0.698;2024-02-15T10:15:56;101065.44;;;12.28;100.00
46718;BME280;32448;44.960;-0.698;2024-02-15T10:18:52;101086.66;;;12.45;100.00
46718;BME280;32448;44.960;-0.698;2024-02-15T10:21:30;101047.09;;;12.28;100.00
46718;BME280;32448;44.960;-0.698;2024-02-15T10:24:32;101042.81;;;12.33;100.00
46718;BME280;32448;44.960;-0.698;2024-02-15T10:27:03;101035.97;;;12.45;100.00
46718;BME280;32448;44.960;-0.698;2024-02-15T10:29:48;101067.84;;;12.75;100.00
46718;BME280;32448;44.960;-0.698;2024-02-15T10:32:20;101030.00;;;12.56;100.00
46718;BME280;32448;44.960;-0.698;2024-02-15T10:35:01;101061.69;;;12.74;100.00
46718;BME280;32448;44.960;-0.698;2024-02-15T10:37:32;101050.34;;;12.75;100.00
46718;BME280;32448;44.960;-0.698;2024-02-15T10:40:06;101068.94;;;12.94;100.00
46718;BME280;32448;44.960;-0.698;2024-02-15T10:42:36;101034.78;;;12.89;100.00
46718;BME280;32448;44.960;-0.698;2024-02-15T10:45:06;100975.00;;;12.62;100.00
46718;BME280;32448;44.960;-0.698;2024-02-15T10:47:41;100984.72;;;12.72;100.00
46718;BME280;32448;44.960;-0.698;2024-02-15T10:50:12;101053.44;;;13.13;100.00
46718;BME280;32448;44.960;-0.698;2024-02-15T10:52:56;101047.50;;;13.30;100.00
46718;BME280;32448;44.960;-0.698;2024-02-15T10:55:52;101031.06;;;13.49;100.00
46718;BME280;32448;44.960;-0.698;2024-02-15T10:58:26;101016.25;;;13.56;100.00
46718;BME280;32448;44.960;-0.698;2024-02-15T11:01:23;100996.13;;;13.59;100.00
46718;BME280;32448;44.960;-0.698;2024-02-15T11:04:42;100996.28;;;13.76;100.00
46718;BME280;32448;44.960;-0.698;2024-02-15T11:07:16;101024.50;;;14.06;100.00
46718;BME280;32448;44.960;-0.698;2024-02-15T11:09:59;100947.25;;;13.76;100.00
46718;BME280;32448;44.960;-0.698;2024-02-15T11:12:37;100966.69;;;14.06;100.00
46718;BME280;32448;44.960;-0.698;2024-02-15T11:15:48;101005.38;;;14.30;100.00
46718;BME280;32448;44.960;-0.698;2024-02-15T11:18:56;101016.09;;;14.62;100.00
46718;BME280;32448;44.960;-0.698;2024-02-15T11:21:54;100966.91;;;14.41;100.00
46718;BME280;32448;44.960;-0.698;2024-02-15T11:24:54;100995.94;;;14.64;100.00
46718;BME280;32448;44.960;-0.698;2024-02-15T11:31:00;100930.13;;;14.47;100.00
46718;BME280;32448;44.960;-0.698;2024-02-15T11:33:39;100931.00;;;14.46;100.00
46718;BME280;32448;44.960;-0.698;2024-02-15T11:36:12;100940.69;;;14.65;100.00
46718;BME280;32448;44.960;-0.698;2024-02-15T11:38:41;100946.91;;;14.88;100.00
46718;BME280;32448;44.960;-0.698;2024-02-15T11:41:35;100961.84;;;15.14;100.00
46718;BME280;32448;44.960;-0.698;2024-02-15T11:44:09;100894.22;;;14.82;100.00
46718;BME280;32448;44.960;-0.698;2024-02-15T11:46:59;100927.63;;;15.21;100.00
46718;BME280;32448;44.960;-0.698;2024-02-15T11:49:34;100909.19;;;15.21;100.00
46718;BME280;32448;44.960;-0.698;2024-02-15T11:52:09;100919.75;;;15.44;100.00
46718;BME280;32448;44.960;-0.698;2024-02-15T11:55:08;100947.00;;;15.57;100.00
46718;BME280;32448;44.960;-0.698;2024-02-15T11:57:41;100893.41;;;15.32;100.00
46718;BME280;32448;44.960;-0.698;2024-02-15T12:00:23;100914.47;;;15.59;100.00
46718;BME280;32448;44.960;-0.698;2024-02-15T12:03:14;100914.47;;;15.64;100.00
46718;BME280;32448;44.960;-0.698;2024-02-15T12:06:01;100882.84;;;15.52;100.00
46718;BME280;32448;44.960;-0.698;2024-02-15T12:08:55;100845.13;;;15.32;100.00
46718;BME280;32448;44.960;-0.698;2024-02-15T12:11:53;100907.44;;;15.66;100.00
46718;BME280;32448;44.960;-0.698;2024-02-15T12:15:04;100875.81;;;15.58;100.00
46718;BME280;32448;44.960;-0.698;2024-02-15T12:17:50;100897.75;;;15.74;100.00
46718;BME280;32448;44.960;-0.698;2024-02-15T12:20:44;100887.19;;;15.82;100.00
46718;BME280;32448;44.960;-0.698;2024-02-15T12:23:16;100862.66;;;15.64;100.00
46718;BME280;32448;44.960;-0.698;2024-02-15T12:25:51;100888.94;;;15.84;100.00
46718;BME280;32448;44.960;-0.698;2024-02-15T12:28:20;100873.13;;;15.83;100.00
46718;BME280;32448;44.960;-0.698;2024-02-15T12:30:55;100888.91;;;15.95;100.00
46718;BME280;32448;44.960;-0.698;2024-02-15T12:33:27;100852.88;;;15.95;100.00
46718;BME280;32448;44.960;-0.698;2024-02-15T12:36:08;100844.09;;;15.96;100.00
46718;BME280;32448;44.960;-0.698;2024-02-15T12:38:36;100863.38;;;16.11;100.00
46718;BME280;32448;44.960;-0.698;2024-02-15T12:41:19;100857.22;;;16.12;100.00
46718;BME280;32448;44.960;-0.698;2024-02-15T12:43:52;100857.22;;;16.12;100.00
46718;BME280;32448;44.960;-0.698;2024-02-15T12:46:19;100860.66;;;16.24;100.00
46718;BME280;32448;44.960;-0.698;2024-02-15T12:48:46;100830.81;;;16.18;100.00
46718;BME280;32448;44.960;-0.698;2024-02-15T12:51:14;100855.38;;;16.32;100.00
46718;BME280;32448;44.960;-0.698;2024-02-15T12:53:43;100857.13;;;16.27;100.00
46718;BME280;32448;44.960;-0.698;2024-02-15T12:56:19;100850.97;;;16.32;100.00
46718;BME280;32448;44.960;-0.698;2024-02-15T12:58:48;100824.66;;;16.19;100.00
46718;BME280;32448;44.960;-0.698;2024-02-15T13:01:17;100836.97;;;16.21;100.00
46718;BME280;32448;44.960;-0.698;2024-02-15T13:03:48;100847.41;;;16.38;100.00
46718;BME280;32448;44.960;-0.698;2024-02-15T13:06:29;100820.19;;;16.33;100.00
46718;BME280;32448;44.960;-0.698;2024-02-15T13:08:56;100836.78;;;16.50;100.00